createdAt,value
2019-03-06T13:28:39.528Z,9.50
2019-03-06T13:31:31.204Z,9.50
2019-03-06T13:34:28.977Z,9.70
2019-03-06T13:37:20.683Z,9.90
2019-03-06T13:40:18.439Z,10.00
2019-03-06T13:43:05.803Z,10.10
2019-03-06T13:45:56.883Z,10.20
2019-03-06T13:48:49.631Z,10.30
2019-03-06T13:51:42.586Z,10.40
2019-03-06T13:54:33.930Z,10.50
2019-03-06T13:57:25.514Z,10.50
2019-03-06T14:00:18.936Z,10.60
2019-03-06T14:03:10.599Z,10.60
2019-03-06T14:06:02.254Z,10.60
2019-03-06T14:08:53.606Z,10.60
2019-03-06T14:11:45.180Z,10.60
2019-03-06T14:14:36.848Z,10.50
2019-03-06T14:17:28.342Z,10.50
2019-03-06T14:20:21.614Z,10.50
2019-03-06T14:23:13.277Z,10.40
2019-03-06T14:26:07.572Z,10.30
2019-03-06T14:28:59.029Z,10.20
2019-03-06T14:31:50.715Z,10.10
2019-03-06T14:34:42.142Z,10.10
2019-03-06T14:37:34.120Z,10.00
2019-03-06T14:40:29.880Z,10.00
2019-03-06T14:43:21.447Z,10.00
2019-03-06T14:46:16.439Z,9.90
2019-03-06T14:49:06.408Z,9.90
2019-03-06T14:52:06.671Z,10.00
2019-03-06T14:54:51.034Z,10.00
2019-03-06T14:57:43.306Z,10.00
2019-03-06T15:00:36.157Z,10.10
2019-03-06T15:03:27.756Z,10.10
2019-03-06T15:06:19.180Z,10.20
2019-03-06T15:09:24.903Z,10.30
2019-03-06T15:12:17.644Z,10.40
2019-03-06T15:15:12.001Z,10.50
2019-03-06T15:18:10.419Z,10.60
2019-03-06T15:20:56.968Z,10.70
2019-03-06T15:23:48.609Z,10.90
2019-03-06T15:26:40.250Z,11.00
2019-03-06T15:29:32.089Z,11.00
2019-03-06T15:32:23.803Z,11.00
2019-03-06T15:35:16.416Z,11.00
2019-03-06T15:38:10.297Z,11.00
2019-03-06T15:41:02.038Z,11.00
2019-03-06T15:43:53.489Z,11.10
2019-03-06T15:46:44.959Z,11.20
2019-03-06T15:49:36.625Z,11.20
2019-03-06T15:52:28.155Z,11.20
2019-03-06T15:55:23.122Z,11.20
2019-03-06T15:58:14.931Z,11.20
2019-03-06T16:01:06.761Z,11.20
2019-03-06T16:03:58.439Z,11.20
2019-03-06T16:06:53.983Z,11.20
2019-03-06T16:09:43.374Z,11.20
2019-03-06T16:12:34.994Z,11.20
2019-03-06T16:15:28.572Z,11.20
2019-03-06T16:18:19.978Z,11.20
2019-03-06T16:21:11.794Z,11.20
2019-03-06T16:24:03.541Z,11.20
2019-03-06T16:26:55.918Z,11.20
2019-03-06T16:29:47.942Z,11.10
2019-03-06T16:32:39.639Z,11.10
2019-03-06T16:35:31.768Z,11.10
2019-03-06T16:38:24.510Z,11.00
2019-03-06T16:41:16.461Z,11.00
2019-03-06T16:44:09.423Z,11.00
2019-03-06T16:47:06.770Z,11.00
2019-03-06T16:49:55.022Z,11.00
2019-03-06T16:52:47.848Z,10.90
2019-03-06T16:55:40.219Z,10.90
2019-03-06T16:58:34.318Z,10.90
2019-03-06T17:01:27.544Z,10.90
2019-03-06T17:04:19.632Z,10.90
2019-03-06T17:07:11.732Z,10.90
2019-03-06T17:10:03.827Z,10.90
2019-03-06T17:12:56.911Z,10.90
2019-03-06T17:15:49.349Z,10.90
2019-03-06T17:18:41.411Z,10.90
2019-03-06T17:21:33.246Z,10.90
2019-03-06T17:24:25.795Z,10.90
2019-03-06T17:27:17.732Z,10.90
2019-03-06T17:30:14.416Z,10.80
2019-03-06T17:33:08.786Z,10.80
2019-03-06T17:36:01.473Z,10.90
2019-03-06T17:38:52.867Z,10.80
2019-03-06T17:41:44.177Z,10.70
2019-03-06T17:44:36.539Z,10.60
2019-03-06T17:47:29.217Z,10.50
2019-03-06T17:50:21.072Z,10.50
2019-03-06T17:53:12.442Z,10.50
2019-03-06T17:56:04.028Z,10.40
2019-03-06T17:58:55.504Z,10.40
2019-03-06T18:01:47.026Z,10.40
2019-03-06T18:04:38.366Z,10.30
2019-03-06T18:07:30.578Z,10.30
2019-03-06T18:10:21.976Z,10.30
2019-03-06T18:13:13.904Z,10.30
2019-03-06T18:16:05.861Z,10.30
2019-03-06T18:18:57.473Z,10.30
2019-03-06T18:21:49.817Z,10.30
2019-03-06T18:24:41.756Z,10.20
2019-03-06T18:27:33.368Z,10.20
2019-03-06T18:30:25.059Z,10.20
2019-03-06T18:33:17.688Z,10.20
2019-03-06T18:36:09.679Z,10.20
2019-03-06T18:39:01.303Z,10.20
2019-03-06T18:41:54.351Z,10.20
2019-03-06T18:44:45.919Z,10.20
2019-03-06T18:47:37.720Z,10.20
2019-03-06T18:50:29.435Z,10.20
2019-03-06T18:53:21.115Z,10.20
2019-03-06T18:56:13.468Z,10.20
2019-03-06T18:59:04.957Z,10.30
2019-03-06T19:01:56.357Z,10.30
2019-03-06T19:04:47.962Z,10.30
2019-03-06T19:07:39.322Z,10.30
2019-03-06T19:10:30.931Z,10.30
2019-03-06T19:13:22.739Z,10.40
2019-03-06T19:16:14.193Z,10.40
2019-03-06T19:19:06.526Z,10.40
2019-03-06T19:21:58.142Z,10.40
2019-03-06T19:24:49.734Z,10.40
2019-03-06T19:27:41.325Z,10.50
2019-03-06T19:30:32.928Z,10.50
2019-03-06T19:33:24.433Z,10.50
2019-03-06T19:36:15.967Z,10.50
2019-03-06T19:39:08.379Z,10.50
2019-03-06T19:42:00.775Z,10.50
2019-03-06T19:44:52.552Z,10.50
2019-03-06T19:47:44.775Z,10.60
2019-03-06T19:50:36.728Z,10.60
2019-03-06T19:53:28.916Z,10.60
2019-03-06T19:56:20.714Z,10.60
2019-03-06T19:59:12.607Z,10.50
2019-03-06T20:02:04.654Z,10.50
2019-03-06T20:04:56.938Z,10.60
2019-03-06T20:07:49.037Z,10.60
2019-03-06T20:10:41.388Z,10.60
2019-03-06T20:13:33.579Z,10.60
2019-03-06T20:16:25.699Z,10.60
2019-03-06T20:19:18.801Z,10.60
2019-03-06T20:22:10.700Z,10.60
2019-03-06T20:25:02.286Z,10.60
2019-03-06T20:27:53.661Z,10.60
2019-03-06T20:30:46.166Z,10.60
2019-03-06T20:33:37.490Z,10.50
2019-03-06T20:36:28.922Z,10.50
2019-03-06T20:39:21.153Z,10.50
2019-03-06T20:42:12.585Z,10.50
2019-03-06T20:45:04.752Z,10.50
2019-03-06T20:47:56.150Z,10.50
2019-03-06T20:50:47.663Z,10.50
2019-03-06T20:53:39.316Z,10.50
2019-03-06T20:56:31.051Z,10.50
2019-03-06T20:59:22.822Z,10.50
2019-03-06T21:02:14.600Z,10.50
2019-03-06T21:05:07.017Z,10.50
2019-03-06T21:08:00.002Z,10.50
2019-03-06T21:10:51.583Z,10.40
2019-03-06T21:13:43.029Z,10.40
2019-03-06T21:16:34.738Z,10.30
2019-03-06T21:19:26.250Z,10.20
2019-03-06T21:22:17.635Z,10.20
2019-03-06T21:25:10.879Z,10.20
2019-03-06T21:28:02.973Z,10.20
2019-03-06T21:30:54.320Z,10.10
2019-03-06T21:33:46.027Z,10.10
2019-03-06T21:36:37.402Z,10.10
2019-03-06T21:39:28.857Z,10.10
2019-03-06T21:42:20.504Z,10.10
2019-03-06T21:45:12.061Z,10.10
2019-03-06T21:48:04.444Z,10.10
2019-03-06T21:50:56.594Z,10.10
2019-03-06T21:53:48.044Z,10.10
2019-03-06T21:56:39.915Z,10.10
2019-03-06T21:59:31.558Z,10.10
2019-03-06T22:02:23.084Z,10.10
2019-03-06T22:05:14.861Z,10.10
2019-03-06T22:08:06.254Z,10.10
2019-03-06T22:10:57.704Z,10.10
2019-03-06T22:13:49.395Z,10.10
2019-03-06T22:16:41.564Z,10.10
2019-03-06T22:19:34.050Z,10.10
2019-03-06T22:22:25.409Z,10.10
2019-03-06T22:25:16.984Z,10.10
2019-03-06T22:28:08.489Z,10.10
2019-03-06T22:30:59.887Z,10.20
2019-03-06T22:33:51.426Z,10.20
2019-03-06T22:36:42.975Z,10.30
2019-03-06T22:39:34.366Z,10.30
2019-03-06T22:42:25.682Z,10.40
2019-03-06T22:45:17.148Z,10.40
2019-03-06T22:48:08.521Z,10.40
2019-03-06T22:51:00.181Z,10.40
2019-03-06T22:53:51.513Z,10.50
2019-03-06T22:56:43.120Z,10.50
2019-03-06T22:59:34.753Z,10.50
2019-03-06T23:02:26.868Z,10.50
2019-03-06T23:05:18.548Z,10.40
2019-03-06T23:08:10.006Z,10.40
2019-03-06T23:11:01.514Z,10.40
2019-03-06T23:13:53.205Z,10.40
2019-03-06T23:16:44.587Z,10.40
2019-03-06T23:19:36.109Z,10.40
2019-03-06T23:22:27.737Z,10.40
2019-03-06T23:25:19.759Z,10.40
2019-03-06T23:28:11.215Z,10.40
2019-03-06T23:31:02.657Z,10.40
2019-03-06T23:33:54.641Z,10.40
2019-03-06T23:36:46.182Z,10.40
2019-03-06T23:39:37.700Z,10.40
2019-03-06T23:42:29.706Z,10.40
2019-03-06T23:45:21.493Z,10.50
2019-03-06T23:48:14.436Z,10.50
2019-03-06T23:51:11.696Z,10.60
2019-03-06T23:54:03.256Z,10.60
2019-03-06T23:56:54.574Z,10.60
2019-03-06T23:59:46.244Z,10.70
